sensor_id;sensor_type;location;lat;lon;timestamp;temperature;humidity
44223;DHT22;29895;48.804;9.386;2023-08-30T00:01:24;13.00;99.90
44223;DHT22;29895;48.804;9.386;2023-08-30T00:03:50;13.00;99.90
44223;DHT22;29895;48.804;9.386;2023-08-30T00:06:15;13.00;99.90
44223;DHT22;29895;48.804;9.386;2023-08-30T00:08:41;13.00;99.90
44223;DHT22;29895;48.804;9.386;2023-08-30T00:11:07;12.90;99.90
44223;DHT22;29895;48.804;9.386;2023-08-30T00:13:32;12.90;99.90
44223;DHT22;29895;48.804;9.386;2023-08-30T00:15:59;12.90;99.90
44223;DHT22;29895;48.804;9.386;2023-08-30T00:18:25;12.90;99.90
44223;DHT22;29895;48.804;9.386;2023-08-30T00:20:50;12.90;99.90
44223;DHT22;29895;48.804;9.386;2023-08-30T00:23:16;13.00;99.90
44223;DHT22;29895;48.804;9.386;2023-08-30T00:25:42;13.00;99.90
44223;DHT22;29895;48.804;9.386;2023-08-30T00:28:08;13.00;99.90
44223;DHT22;29895;48.804;9.386;2023-08-30T00:30:33;13.00;99.90
44223;DHT22;29895;48.804;9.386;2023-08-30T00:32:59;13.00;99.90
44223;DHT22;29895;48.804;9.386;2023-08-30T00:35:25;13.00;99.90
44223;DHT22;29895;48.804;9.386;2023-08-30T00:37:50;13.00;99.90
44223;DHT22;29895;48.804;9.386;2023-08-30T00:40:16;13.00;99.90
44223;DHT22;29895;48.804;9.386;2023-08-30T00:42:42;13.00;99.90
44223;DHT22;29895;48.804;9.386;2023-08-30T00:45:07;13.00;99.90
44223;DHT22;29895;48.804;9.386;2023-08-30T00:47:34;13.00;99.90
44223;DHT22;29895;48.804;9.386;2023-08-30T00:50:01;12.90;99.90
44223;DHT22;29895;48.804;9.386;2023-08-30T00:52:26;12.90;99.90
44223;DHT22;29895;48.804;9.386;2023-08-30T00:54:52;12.90;99.90
44223;DHT22;29895;48.804;9.386;2023-08-30T00:57:18;12.90;99.90
44223;DHT22;29895;48.804;9.386;2023-08-30T00:59:44;12.90;99.90
44223;DHT22;29895;48.804;9.386;2023-08-30T01:02:09;12.80;99.90
44223;DHT22;29895;48.804;9.386;2023-08-30T01:04:35;12.80;99.90
44223;DHT22;29895;48.804;9.386;2023-08-30T01:07:01;12.80;99.90
44223;DHT22;29895;48.804;9.386;2023-08-30T01:09:27;12.80;99.90
44223;DHT22;29895;48.804;9.386;2023-08-30T01:14:45;12.90;99.90
44223;DHT22;29895;48.804;9.386;2023-08-30T01:17:14;12.90;99.90
44223;DHT22;29895;48.804;9.386;2023-08-30T01:20:00;12.90;99.90
44223;DHT22;29895;48.804;9.386;2023-08-30T01:22:57;12.80;99.90
44223;DHT22;29895;48.804;9.386;2023-08-30T01:25:52;12.70;99.90
44223;DHT22;29895;48.804;9.386;2023-08-30T01:28:23;12.70;99.90
44223;DHT22;29895;48.804;9.386;2023-08-30T01:30:50;12.70;99.90
44223;DHT22;29895;48.804;9.386;2023-08-30T01:33:20;12.70;99.90
44223;DHT22;29895;48.804;9.386;2023-08-30T01:35:47;12.70;99.90
44223;DHT22;29895;48.804;9.386;2023-08-30T01:38:13;12.60;99.90
44223;DHT22;29895;48.804;9.386;2023-08-30T01:40:42;12.60;99.90
44223;DHT22;29895;48.804;9.386;2023-08-30T01:43:08;12.60;99.90
44223;DHT22;29895;48.804;9.386;2023-08-30T01:45:39;12.60;99.90
44223;DHT22;29895;48.804;9.386;2023-08-30T01:48:08;12.60;99.90
44223;DHT22;29895;48.804;9.386;2023-08-30T01:50:34;12.60;99.90
44223;DHT22;29895;48.804;9.386;2023-08-30T01:53:02;12.60;99.90
44223;DHT22;29895;48.804;9.386;2023-08-30T01:55:28;12.50;99.90
44223;DHT22;29895;48.804;9.386;2023-08-30T01:57:55;12.40;99.90
44223;DHT22;29895;48.804;9.386;2023-08-30T02:00:20;12.40;99.90
44223;DHT22;29895;48.804;9.386;2023-08-30T02:02:48;12.30;99.90
44223;DHT22;29895;48.804;9.386;2023-08-30T02:05:14;12.30;99.90
44223;DHT22;29895;48.804;9.386;2023-08-30T02:10:21;12.30;99.90
44223;DHT22;29895;48.804;9.386;2023-08-30T02:12:49;12.30;99.90
44223;DHT22;29895;48.804;9.386;2023-08-30T02:15:19;12.30;99.90
44223;DHT22;29895;48.804;9.386;2023-08-30T02:17:45;12.30;99.90
44223;DHT22;29895;48.804;9.386;2023-08-30T02:20:12;12.20;99.90
44223;DHT22;29895;48.804;9.386;2023-08-30T02:22:38;12.20;99.90
44223;DHT22;29895;48.804;9.386;2023-08-30T02:25:04;12.30;99.90
44223;DHT22;29895;48.804;9.386;2023-08-30T02:27:33;12.20;99.90
44223;DHT22;29895;48.804;9.386;2023-08-30T02:29:59;12.20;99.90
44223;DHT22;29895;48.804;9.386;2023-08-30T02:32:25;12.30;99.90
44223;DHT22;29895;48.804;9.386;2023-08-30T02:34:52;12.40;99.90
44223;DHT22;29895;48.804;9.386;2023-08-30T02:37:18;12.40;99.90
44223;DHT22;29895;48.804;9.386;2023-08-30T02:39:44;12.40;99.90
44223;DHT22;29895;48.804;9.386;2023-08-30T02:42:09;12.40;99.90
44223;DHT22;29895;48.804;9.386;2023-08-30T02:44:35;12.40;99.90
44223;DHT22;29895;48.804;9.386;2023-08-30T02:47:01;12.40;99.90
44223;DHT22;29895;48.804;9.386;2023-08-30T02:49:26;12.50;99.90
44223;DHT22;29895;48.804;9.386;2023-08-30T02:51:52;12.50;99.90
44223;DHT22;29895;48.804;9.386;2023-08-30T02:54:18;12.50;99.90
44223;DHT22;29895;48.804;9.386;2023-08-30T02:56:44;12.50;99.90
44223;DHT22;29895;48.804;9.386;2023-08-30T02:59:11;12.50;99.90
44223;DHT22;29895;48.804;9.386;2023-08-30T03:01:37;12.40;99.90
44223;DHT22;29895;48.804;9.386;2023-08-30T03:04:07;12.40;99.90
44223;DHT22;29895;48.804;9.386;2023-08-30T03:06:34;12.40;99.90
44223;DHT22;29895;48.804;9.386;2023-08-30T03:09:00;12.30;99.90
44223;DHT22;29895;48.804;9.386;2023-08-30T03:11:26;12.30;99.90
44223;DHT22;29895;48.804;9.386;2023-08-30T03:13:53;12.40;99.90
44223;DHT22;29895;48.804;9.386;2023-08-30T03:16:20;12.50;99.90
44223;DHT22;29895;48.804;9.386;2023-08-30T03:18:46;12.50;99.90
44223;DHT22;29895;48.804;9.386;2023-08-30T03:21:12;12.50;99.90
44223;DHT22;29895;48.804;9.386;2023-08-30T03:23:39;12.60;99.90
44223;DHT22;29895;48.804;9.386;2023-08-30T03:26:12;12.50;99.90
44223;DHT22;29895;48.804;9.386;2023-08-30T03:28:38;12.60;99.90
44223;DHT22;29895;48.804;9.386;2023-08-30T03:31:17;12.50;99.90
44223;DHT22;29895;48.804;9.386;2023-08-30T03:33:43;12.50;99.90
44223;DHT22;29895;48.804;9.386;2023-08-30T03:36:16;12.50;99.90
44223;DHT22;29895;48.804;9.386;2023-08-30T03:38:42;12.50;99.90
44223;DHT22;29895;48.804;9.386;2023-08-30T03:41:08;12.50;99.90
44223;DHT22;29895;48.804;9.386;2023-08-30T03:43:34;12.50;99.90
44223;DHT22;29895;48.804;9.386;2023-08-30T03:46:00;12.50;99.90
44223;DHT22;29895;48.804;9.386;2023-08-30T03:48:30;12.50;99.90
44223;DHT22;29895;48.804;9.386;2023-08-30T03:50:56;12.40;99.90
44223;DHT22;29895;48.804;9.386;2023-08-30T03:53:23;12.40;99.90
44223;DHT22;29895;48.804;9.386;2023-08-30T03:55:49;12.40;99.90
44223;DHT22;29895;48.804;9.386;2023-08-30T03:58:16;12.40;99.90
44223;DHT22;29895;48.804;9.386;2023-08-30T04:00:41;12.40;99.90
44223;DHT22;29895;48.804;9.386;2023-08-30T04:03:09;12.40;99.90
44223;DHT22;29895;48.804;9.386;2023-08-30T04:05:35;12.40;99.90
44223;DHT22;29895;48.804;9.386;2023-08-30T04:08:02;12.50;99.90
44223;DHT22;29895;48.804;9.386;2023-08-30T04:10:28;12.50;99.90
44223;DHT22;29895;48.804;9.386;2023-08-30T04:12:53;12.60;99.90
44223;DHT22;29895;48.804;9.386;2023-08-30T04:15:19;12.60;99.90
44223;DHT22;29895;48.804;9.386;2023-08-30T04:17:45;12.60;99.90
44223;DHT22;29895;48.804;9.386;2023-08-30T04:20:10;12.60;99.90
44223;DHT22;29895;48.804;9.386;2023-08-30T04:22:36;12.60;99.90
44223;DHT22;29895;48.804;9.386;2023-08-30T04:25:04;12.60;99.90
44223;DHT22;29895;48.804;9.386;2023-08-30T04:27:29;12.60;99.90
44223;DHT22;29895;48.804;9.386;2023-08-30T04:29:55;12.60;99.90
44223;DHT22;29895;48.804;9.386;2023-08-30T04:32:21;12.60;99.90
44223;DHT22;29895;48.804;9.386;2023-08-30T04:34:46;12.60;99.90
44223;DHT22;29895;48.804;9.386;2023-08-30T04:37:12;12.60;99.90
44223;DHT22;29895;48.804;9.386;2023-08-30T04:39:39;12.60;99.90
44223;DHT22;29895;48.804;9.386;2023-08-30T04:42:05;12.60;99.90
44223;DHT22;29895;48.804;9.386;2023-08-30T04:44:31;12.60;99.90
44223;DHT22;29895;48.804;9.386;2023-08-30T04:46:57;12.60;99.90
44223;DHT22;29895;48.804;9.386;2023-08-30T04:49:23;12.60;99.90
44223;DHT22;29895;48.804;9.386;2023-08-30T04:51:51;12.70;99.90
44223;DHT22;29895;48.804;9.386;2023-08-30T04:54:16;12.70;99.90
44223;DHT22;29895;48.804;9.386;2023-08-30T04:56:42;12.70;99.90
44223;DHT22;29895;48.804;9.386;2023-08-30T04:59:08;12.80;99.90
44223;DHT22;29895;48.804;9.386;2023-08-30T05:01:34;12.80;99.90
44223;DHT22;29895;48.804;9.386;2023-08-30T05:04:00;12.80;99.90
44223;DHT22;29895;48.804;9.386;2023-08-30T05:06:26;12.80;99.90
44223;DHT22;29895;48.804;9.386;2023-08-30T05:08:52;12.70;99.90
44223;DHT22;29895;48.804;9.386;2023-08-30T05:11:17;12.80;99.90
44223;DHT22;29895;48.804;9.386;2023-08-30T05:13:43;12.80;99.90
44223;DHT22;29895;48.804;9.386;2023-08-30T05:16:09;12.80;99.90
44223;DHT22;29895;48.804;9.386;2023-08-30T05:18:34;12.80;99.90
44223;DHT22;29895;48.804;9.386;2023-08-30T05:21:00;12.90;99.90
44223;DHT22;29895;48.804;9.386;2023-08-30T05:23:28;12.90;99.90
44223;DHT22;29895;48.804;9.386;2023-08-30T05:25:54;12.90;99.90
44223;DHT22;29895;48.804;9.386;2023-08-30T05:28:20;13.00;99.90
44223;DHT22;29895;48.804;9.386;2023-08-30T05:30:45;13.00;99.90
44223;DHT22;29895;48.804;9.386;2023-08-30T05:33:11;13.00;99.90
44223;DHT22;29895;48.804;9.386;2023-08-30T05:35:37;13.00;99.90
44223;DHT22;29895;48.804;9.386;2023-08-30T05:38:02;13.00;99.90
44223;DHT22;29895;48.804;9.386;2023-08-30T05:40:28;13.00;99.90
44223;DHT22;29895;48.804;9.386;2023-08-30T05:42:54;13.10;99.90
44223;DHT22;29895;48.804;9.386;2023-08-30T05:45:20;13.20;99.90
44223;DHT22;29895;48.804;9.386;2023-08-30T05:47:46;13.20;99.90
44223;DHT22;29895;48.804;9.386;2023-08-30T05:50:12;13.20;99.90
44223;DHT22;29895;48.804;9.386;2023-08-30T05:52:37;13.20;99.90
44223;DHT22;29895;48.804;9.386;2023-08-30T05:55:07;13.30;99.90
44223;DHT22;29895;48.804;9.386;2023-08-30T05:57:33;13.30;99.90
44223;DHT22;29895;48.804;9.386;2023-08-30T06:00:00;13.40;99.90
44223;DHT22;29895;48.804;9.386;2023-08-30T06:02:26;13.50;99.90
44223;DHT22;29895;48.804;9.386;2023-08-30T06:04:51;13.50;99.90
44223;DHT22;29895;48.804;9.386;2023-08-30T06:07:17;13.50;99.90
44223;DHT22;29895;48.804;9.386;2023-08-30T06:09:43;13.60;99.90
44223;DHT22;29895;48.804;9.386;2023-08-30T06:12:09;13.70;99.90
44223;DHT22;29895;48.804;9.386;2023-08-30T06:14:35;13.70;99.90
44223;DHT22;29895;48.804;9.386;2023-08-30T06:17:01;13.80;99.90
44223;DHT22;29895;48.804;9.386;2023-08-30T06:19:26;13.80;99.90
44223;DHT22;29895;48.804;9.386;2023-08-30T06:21:52;13.80;99.90
44223;DHT22;29895;48.804;9.386;2023-08-30T06:24:17;13.90;99.90
44223;DHT22;29895;48.804;9.386;2023-08-30T06:26:43;14.00;99.90
44223;DHT22;29895;48.804;9.386;2023-08-30T06:29:09;14.10;99.90
44223;DHT22;29895;48.804;9.386;2023-08-30T06:31:35;14.20;99.90
44223;DHT22;29895;48.804;9.386;2023-08-30T06:34:00;14.20;99.90
44223;DHT22;29895;48.804;9.386;2023-08-30T06:36:26;14.30;99.90
44223;DHT22;29895;48.804;9.386;2023-08-30T06:38:52;14.40;99.90
44223;DHT22;29895;48.804;9.386;2023-08-30T06:41:17;14.30;99.90
44223;DHT22;29895;48.804;9.386;2023-08-30T06:43:43;14.40;99.90
44223;DHT22;29895;48.804;9.386;2023-08-30T06:46:09;14.50;99.90
44223;DHT22;29895;48.804;9.386;2023-08-30T06:48:34;14.50;99.90
44223;DHT22;29895;48.804;9.386;2023-08-30T06:51:00;14.60;99.90
44223;DHT22;29895;48.804;9.386;2023-08-30T06:53:29;14.80;99.90
44223;DHT22;29895;48.804;9.386;2023-08-30T06:55:58;14.80;99.90
44223;DHT22;29895;48.804;9.386;2023-08-30T06:58:25;14.90;99.90
44223;DHT22;29895;48.804;9.386;2023-08-30T07:00:51;15.00;99.90
44223;DHT22;29895;48.804;9.386;2023-08-30T07:03:16;15.00;99.90
44223;DHT22;29895;48.804;9.386;2023-08-30T07:05:42;15.10;99.90
44223;DHT22;29895;48.804;9.386;2023-08-30T07:08:09;15.20;99.90
44223;DHT22;29895;48.804;9.386;2023-08-30T07:10:35;15.30;99.90
44223;DHT22;29895;48.804;9.386;2023-08-30T07:13:01;15.40;99.90
44223;DHT22;29895;48.804;9.386;2023-08-30T07:15:27;15.40;99.90
44223;DHT22;29895;48.804;9.386;2023-08-30T07:17:53;15.40;99.90
44223;DHT22;29895;48.804;9.386;2023-08-30T07:20:19;15.50;99.90
44223;DHT22;29895;48.804;9.386;2023-08-30T07:22:45;15.60;99.90
44223;DHT22;29895;48.804;9.386;2023-08-30T07:25:10;15.60;99.90
44223;DHT22;29895;48.804;9.386;2023-08-30T07:27:37;15.80;99.90
44223;DHT22;29895;48.804;9.386;2023-08-30T07:30:03;15.90;99.90
44223;DHT22;29895;48.804;9.386;2023-08-30T07:32:30;16.00;99.90
44223;DHT22;29895;48.804;9.386;2023-08-30T07:34:55;16.00;99.90
44223;DHT22;29895;48.804;9.386;2023-08-30T07:37:22;16.00;99.90
44223;DHT22;29895;48.804;9.386;2023-08-30T07:39:48;15.90;99.90
44223;DHT22;29895;48.804;9.386;2023-08-30T07:42:14;16.00;99.90
44223;DHT22;29895;48.804;9.386;2023-08-30T07:44:40;16.00;99.90
44223;DHT22;29895;48.804;9.386;2023-08-30T07:47:06;16.00;99.90
44223;DHT22;29895;48.804;9.386;2023-08-30T07:49:32;16.10;99.90
44223;DHT22;29895;48.804;9.386;2023-08-30T07:51:57;16.10;99.90
44223;DHT22;29895;48.804;9.386;2023-08-30T07:54:24;16.20;99.90
44223;DHT22;29895;48.804;9.386;2023-08-30T07:56:49;16.30;99.90
44223;DHT22;29895;48.804;9.386;2023-08-30T07:59:15;16.40;99.90
44223;DHT22;29895;48.804;9.386;2023-08-30T08:01:41;16.40;99.90
44223;DHT22;29895;48.804;9.386;2023-08-30T08:04:07;16.40;99.90
44223;DHT22;29895;48.804;9.386;2023-08-30T08:06:33;16.30;99.90
44223;DHT22;29895;48.804;9.386;2023-08-30T08:08:58;16.40;99.90
44223;DHT22;29895;48.804;9.386;2023-08-30T08:11:25;16.40;99.90
44223;DHT22;29895;48.804;9.386;2023-08-30T08:13:51;16.60;99.90
44223;DHT22;29895;48.804;9.386;2023-08-30T08:16:17;16.60;99.90
44223;DHT22;29895;48.804;9.386;2023-08-30T08:18:43;16.60;99.90
44223;DHT22;29895;48.804;9.386;2023-08-30T08:21:08;16.60;99.90
44223;DHT22;29895;48.804;9.386;2023-08-30T08:23:34;16.60;99.90
44223;DHT22;29895;48.804;9.386;2023-08-30T08:26:00;16.50;99.90
44223;DHT22;29895;48.804;9.386;2023-08-30T08:28:26;16.50;99.90
44223;DHT22;29895;48.804;9.386;2023-08-30T08:30:52;16.50;99.90
44223;DHT22;29895;48.804;9.386;2023-08-30T08:33:18;16.70;99.90
44223;DHT22;29895;48.804;9.386;2023-08-30T08:35:44;16.80;99.90
44223;DHT22;29895;48.804;9.386;2023-08-30T08:38:10;16.90;99.90
44223;DHT22;29895;48.804;9.386;2023-08-30T08:40:39;17.10;99.90
44223;DHT22;29895;48.804;9.386;2023-08-30T08:43:06;17.20;99.90
44223;DHT22;29895;48.804;9.386;2023-08-30T08:45:35;17.30;99.90
44223;DHT22;29895;48.804;9.386;2023-08-30T08:48:05;17.20;99.90
44223;DHT22;29895;48.804;9.386;2023-08-30T08:50:32;17.00;99.90
44223;DHT22;29895;48.804;9.386;2023-08-30T08:52:59;16.90;99.90
44223;DHT22;29895;48.804;9.386;2023-08-30T08:55:26;17.00;99.90
44223;DHT22;29895;48.804;9.386;2023-08-30T08:57:53;17.10;99.90
44223;DHT22;29895;48.804;9.386;2023-08-30T09:00:19;17.30;99.90
44223;DHT22;29895;48.804;9.386;2023-08-30T09:02:45;17.40;99.90
44223;DHT22;29895;48.804;9.386;2023-08-30T09:05:12;17.30;99.90
44223;DHT22;29895;48.804;9.386;2023-08-30T09:07:38;17.60;99.90
44223;DHT22;29895;48.804;9.386;2023-08-30T09:10:05;17.70;99.90
44223;DHT22;29895;48.804;9.386;2023-08-30T09:12:34;17.50;99.90
44223;DHT22;29895;48.804;9.386;2023-08-30T09:15:00;17.40;99.90
44223;DHT22;29895;48.804;9.386;2023-08-30T09:17:36;17.40;99.90
44223;DHT22;29895;48.804;9.386;2023-08-30T09:20:09;17.70;99.90
44223;DHT22;29895;48.804;9.386;2023-08-30T09:22:39;18.10;99.90
44223;DHT22;29895;48.804;9.386;2023-08-30T09:25:08;18.30;99.90
44223;DHT22;29895;48.804;9.386;2023-08-30T09:27:34;18.40;99.90
44223;DHT22;29895;48.804;9.386;2023-08-30T09:30:01;18.60;99.90
44223;DHT22;29895;48.804;9.386;2023-08-30T09:32:28;18.70;99.90
44223;DHT22;29895;48.804;9.386;2023-08-30T09:34:54;19.00;99.90
44223;DHT22;29895;48.804;9.386;2023-08-30T09:37:20;19.00;99.90
44223;DHT22;29895;48.804;9.386;2023-08-30T09:39:50;19.20;99.90
44223;DHT22;29895;48.804;9.386;2023-08-30T09:42:19;19.40;99.90
44223;DHT22;29895;48.804;9.386;2023-08-30T09:44:45;19.70;99.90
44223;DHT22;29895;48.804;9.386;2023-08-30T09:47:13;19.80;99.90
44223;DHT22;29895;48.804;9.386;2023-08-30T09:49:44;19.90;99.90
44223;DHT22;29895;48.804;9.386;2023-08-30T09:52:16;19.90;99.90
44223;DHT22;29895;48.804;9.386;2023-08-30T09:54:42;19.90;99.90
44223;DHT22;29895;48.804;9.386;2023-08-30T09:57:10;20.00;99.90
44223;DHT22;29895;48.804;9.386;2023-08-30T09:59:36;20.20;99.90
44223;DHT22;29895;48.804;9.386;2023-08-30T10:02:03;20.50;99.90
44223;DHT22;29895;48.804;9.386;2023-08-30T10:04:31;20.60;99.90
44223;DHT22;29895;48.804;9.386;2023-08-30T10:06:58;20.80;99.90
44223;DHT22;29895;48.804;9.386;2023-08-30T10:09:24;20.90;99.90
44223;DHT22;29895;48.804;9.386;2023-08-30T10:11:50;21.00;99.90
44223;DHT22;29895;48.804;9.386;2023-08-30T10:14:17;21.10;99.90
44223;DHT22;29895;48.804;9.386;2023-08-30T10:16:47;21.20;99.90
44223;DHT22;29895;48.804;9.386;2023-08-30T10:19:27;21.30;99.90
44223;DHT22;29895;48.804;9.386;2023-08-30T10:22:04;21.10;99.90
44223;DHT22;29895;48.804;9.386;2023-08-30T10:24:41;21.00;99.90
44223;DHT22;29895;48.804;9.386;2023-08-30T10:27:08;21.10;99.90
44223;DHT22;29895;48.804;9.386;2023-08-30T10:29:36;21.20;99.90
44223;DHT22;29895;48.804;9.386;2023-08-30T10:32:06;21.30;99.90
44223;DHT22;29895;48.804;9.386;2023-08-30T10:34:34;21.10;99.90
44223;DHT22;29895;48.804;9.386;2023-08-30T10:37:00;21.10;99.90
44223;DHT22;29895;48.804;9.386;2023-08-30T10:39:40;21.10;99.90
44223;DHT22;29895;48.804;9.386;2023-08-30T10:42:10;21.30;99.90
44223;DHT22;29895;48.804;9.386;2023-08-30T10:44:56;21.30;99.90
44223;DHT22;29895;48.804;9.386;2023-08-30T10:47:24;21.10;99.90
44223;DHT22;29895;48.804;9.386;2023-08-30T10:49:54;20.90;99.90
44223;DHT22;29895;48.804;9.386;2023-08-30T10:52:23;21.20;99.90
44223;DHT22;29895;48.804;9.386;2023-08-30T10:54:49;21.40;99.90
44223;DHT22;29895;48.804;9.386;2023-08-30T10:57:24;21.60;99.90
44223;DHT22;29895;48.804;9.386;2023-08-30T11:00:09;21.90;99.90
44223;DHT22;29895;48.804;9.386;2023-08-30T11:02:36;22.00;99.90
44223;DHT22;29895;48.804;9.386;2023-08-30T11:05:04;22.10;99.90
44223;DHT22;29895;48.804;9.386;2023-08-30T11:07:31;22.30;99.90
44223;DHT22;29895;48.804;9.386;2023-08-30T11:09:58;22.40;99.90
44223;DHT22;29895;48.804;9.386;2023-08-30T11:12:24;22.50;99.90
44223;DHT22;29895;48.804;9.386;2023-08-30T11:14:52;22.50;99.90
44223;DHT22;29895;48.804;9.386;2023-08-30T11:17:18;22.60;99.90
44223;DHT22;29895;48.804;9.386;2023-08-30T11:19:45;22.30;99.90
44223;DHT22;29895;48.804;9.386;2023-08-30T11:22:12;22.20;99.90
44223;DHT22;29895;48.804;9.386;2023-08-30T11:24:39;22.20;99.90
44223;DHT22;29895;48.804;9.386;2023-08-30T11:27:05;22.20;99.90
44223;DHT22;29895;48.804;9.386;2023-08-30T11:29:30;22.20;99.90
44223;DHT22;29895;48.804;9.386;2023-08-30T11:31:56;22.30;99.90
44223;DHT22;29895;48.804;9.386;2023-08-30T11:34:22;22.40;99.90
44223;DHT22;29895;48.804;9.386;2023-08-30T11:36:48;22.40;99.90
44223;DHT22;29895;48.804;9.386;2023-08-30T11:39:16;22.40;99.90
44223;DHT22;29895;48.804;9.386;2023-08-30T11:41:43;22.20;99.90
44223;DHT22;29895;48.804;9.386;2023-08-30T11:44:09;22.40;99.90
44223;DHT22;29895;48.804;9.386;2023-08-30T11:46:35;22.60;99.90
44223;DHT22;29895;48.804;9.386;2023-08-30T11:49:01;22.70;99.90
44223;DHT22;29895;48.804;9.386;2023-08-30T11:51:28;22.80;99.90
44223;DHT22;29895;48.804;9.386;2023-08-30T11:53:55;22.70;99.90
44223;DHT22;29895;48.804;9.386;2023-08-30T11:56:21;22.60;99.90
44223;DHT22;29895;48.804;9.386;2023-08-30T11:58:48;22.70;99.90
44223;DHT22;29895;48.804;9.386;2023-08-30T12:01:14;22.80;99.90
44223;DHT22;29895;48.804;9.386;2023-08-30T12:03:40;22.80;99.90
44223;DHT22;29895;48.804;9.386;2023-08-30T12:06:10;22.90;99.90
44223;DHT22;29895;48.804;9.386;2023-08-30T12:08:37;23.00;99.90
44223;DHT22;29895;48.804;9.386;2023-08-30T12:11:03;23.10;99.90
44223;DHT22;29895;48.804;9.386;2023-08-30T12:13:31;23.10;99.90
44223;DHT22;29895;48.804;9.386;2023-08-30T12:15:58;23.00;99.90
44223;DHT22;29895;48.804;9.386;2023-08-30T12:18:25;22.90;99.90
44223;DHT22;29895;48.804;9.386;2023-08-30T12:20:58;22.80;99.90
44223;DHT22;29895;48.804;9.386;2023-08-30T12:23:25;22.60;99.90
44223;DHT22;29895;48.804;9.386;2023-08-30T12:28:28;21.80;99.90
44223;DHT22;29895;48.804;9.386;2023-08-30T12:30:54;20.70;99.90
44223;DHT22;29895;48.804;9.386;2023-08-30T12:33:20;19.40;99.90
44223;DHT22;29895;48.804;9.386;2023-08-30T12:35:47;18.40;99.90
44223;DHT22;29895;48.804;9.386;2023-08-30T12:38:12;17.90;99.90
44223;DHT22;29895;48.804;9.386;2023-08-30T12:40:44;17.60;99.90
44223;DHT22;29895;48.804;9.386;2023-08-30T12:43:09;17.30;99.90
44223;DHT22;29895;48.804;9.386;2023-08-30T12:45:36;17.20;99.90
44223;DHT22;29895;48.804;9.386;2023-08-30T12:48:02;17.10;99.90
44223;DHT22;29895;48.804;9.386;2023-08-30T12:50:28;17.10;99.90
44223;DHT22;29895;48.804;9.386;2023-08-30T12:52:54;17.10;99.90
44223;DHT22;29895;48.804;9.386;2023-08-30T12:55:19;17.20;99.90
44223;DHT22;29895;48.804;9.386;2023-08-30T12:57:45;17.30;99.90
44223;DHT22;29895;48.804;9.386;2023-08-30T13:00:13;17.40;99.90
44223;DHT22;29895;48.804;9.386;2023-08-30T13:02:39;17.60;99.90
44223;DHT22;29895;48.804;9.386;2023-08-30T13:05:05;17.80;99.90
44223;DHT22;29895;48.804;9.386;2023-08-30T13:07:31;17.90;99.90
44223;DHT22;29895;48.804;9.386;2023-08-30T13:09:56;17.90;99.90
44223;DHT22;29895;48.804;9.386;2023-08-30T13:12:22;17.80;99.90
44223;DHT22;29895;48.804;9.386;2023-08-30T13:14:48;17.90;99.90
44223;DHT22;29895;48.804;9.386;2023-08-30T13:17:14;18.00;99.90
44223;DHT22;29895;48.804;9.386;2023-08-30T13:19:43;18.10;99.90
44223;DHT22;29895;48.804;9.386;2023-08-30T13:22:09;18.30;99.90
44223;DHT22;29895;48.804;9.386;2023-08-30T13:24:35;18.50;99.90
44223;DHT22;29895;48.804;9.386;2023-08-30T13:27:01;18.50;99.90
44223;DHT22;29895;48.804;9.386;2023-08-30T13:29:28;18.50;99.90
44223;DHT22;29895;48.804;9.386;2023-08-30T13:31:53;18.60;99.90
44223;DHT22;29895;48.804;9.386;2023-08-30T13:34:19;19.00;99.90
44223;DHT22;29895;48.804;9.386;2023-08-30T13:36:45;19.30;99.90
44223;DHT22;29895;48.804;9.386;2023-08-30T13:39:10;19.50;99.90
44223;DHT22;29895;48.804;9.386;2023-08-30T13:41:36;19.70;99.90
44223;DHT22;29895;48.804;9.386;2023-08-30T13:44:02;19.70;99.90
44223;DHT22;29895;48.804;9.386;2023-08-30T13:46:31;19.60;99.90
44223;DHT22;29895;48.804;9.386;2023-08-30T13:48:57;19.40;99.90
44223;DHT22;29895;48.804;9.386;2023-08-30T13:51:24;19.30;99.90
44223;DHT22;29895;48.804;9.386;2023-08-30T13:53:50;19.40;99.90
44223;DHT22;29895;48.804;9.386;2023-08-30T13:56:16;19.40;99.90
44223;DHT22;29895;48.804;9.386;2023-08-30T13:58:42;19.60;99.90
44223;DHT22;29895;48.804;9.386;2023-08-30T14:01:08;19.60;99.90
44223;DHT22;29895;48.804;9.386;2023-08-30T14:03:34;19.70;99.90
44223;DHT22;29895;48.804;9.386;2023-08-30T14:06:00;19.60;99.90
44223;DHT22;29895;48.804;9.386;2023-08-30T14:08:25;19.70;99.90
44223;DHT22;29895;48.804;9.386;2023-08-30T14:10:51;19.60;99.90
44223;DHT22;29895;48.804;9.386;2023-08-30T14:13:17;19.70;99.90
44223;DHT22;29895;48.804;9.386;2023-08-30T14:15:42;19.90;99.90
44223;DHT22;29895;48.804;9.386;2023-08-30T14:18:08;20.20;99.90
44223;DHT22;29895;48.804;9.386;2023-08-30T14:20:34;20.40;99.90
44223;DHT22;29895;48.804;9.386;2023-08-30T14:23:00;20.50;99.90
44223;DHT22;29895;48.804;9.386;2023-08-30T14:25:25;20.50;99.90
44223;DHT22;29895;48.804;9.386;2023-08-30T14:27:51;20.50;99.90
44223;DHT22;29895;48.804;9.386;2023-08-30T14:30:17;20.70;99.90
44223;DHT22;29895;48.804;9.386;2023-08-30T14:32:43;20.60;99.90
44223;DHT22;29895;48.804;9.386;2023-08-30T14:35:09;20.70;99.90
44223;DHT22;29895;48.804;9.386;2023-08-30T14:37:34;20.70;99.90
44223;DHT22;29895;48.804;9.386;2023-08-30T14:40:05;20.80;99.90
44223;DHT22;29895;48.804;9.386;2023-08-30T14:42:31;20.80;99.90
44223;DHT22;29895;48.804;9.386;2023-08-30T14:44:57;20.90;99.90
44223;DHT22;29895;48.804;9.386;2023-08-30T14:47:23;20.90;99.90
44223;DHT22;29895;48.804;9.386;2023-08-30T14:49:49;20.70;99.90
44223;DHT22;29895;48.804;9.386;2023-08-30T14:52:15;20.70;99.90
44223;DHT22;29895;48.804;9.386;2023-08-30T14:54:42;20.70;99.90
44223;DHT22;29895;48.804;9.386;2023-08-30T14:57:08;20.70;99.90
44223;DHT22;29895;48.804;9.386;2023-08-30T14:59:34;20.60;99.90
44223;DHT22;29895;48.804;9.386;2023-08-30T15:02:00;20.50;99.90
44223;DHT22;29895;48.804;9.386;2023-08-30T15:04:26;20.30;99.90
44223;DHT22;29895;48.804;9.386;2023-08-30T15:06:52;20.20;99.90
44223;DHT22;29895;48.804;9.386;2023-08-30T15:09:18;20.10;99.90
44223;DHT22;29895;48.804;9.386;2023-08-30T15:11:44;19.90;99.90
44223;DHT22;29895;48.804;9.386;2023-08-30T15:14:10;19.70;99.90
44223;DHT22;29895;48.804;9.386;2023-08-30T15:16:36;19.60;99.90
44223;DHT22;29895;48.804;9.386;2023-08-30T15:19:02;19.50;99.90
44223;DHT22;29895;48.804;9.386;2023-08-30T15:21:28;19.40;99.90
44223;DHT22;29895;48.804;9.386;2023-08-30T15:23:54;19.30;99.90
44223;DHT22;29895;48.804;9.386;2023-08-30T15:26:19;19.20;99.90
44223;DHT22;29895;48.804;9.386;2023-08-30T15:28:49;19.20;99.90
44223;DHT22;29895;48.804;9.386;2023-08-30T15:31:16;19.10;99.90
44223;DHT22;29895;48.804;9.386;2023-08-30T15:33:45;19.20;99.90
44223;DHT22;29895;48.804;9.386;2023-08-30T15:36:11;19.20;99.90